createdAt,value
2023-02-01T00:00:59.794Z,27.67
2023-02-01T00:03:33.660Z,29.95
2023-02-01T00:06:06.801Z,25.40
2023-02-01T00:08:39.568Z,25.95
2023-02-01T00:11:14.204Z,30.17
2023-02-01T00:13:47.484Z,30.23
2023-02-01T00:16:24.372Z,26.17
2023-02-01T00:19:09.938Z,28.10
2023-02-01T00:21:43.487Z,26.87
2023-02-01T00:24:16.844Z,25.60
2023-02-01T00:26:49.887Z,23.27
2023-02-01T00:29:23.943Z,23.25
2023-02-01T00:34:30.090Z,21.48
2023-02-01T00:37:03.178Z,20.53
2023-02-01T00:39:36.078Z,22.13
2023-02-01T00:42:09.595Z,21.85
2023-02-01T00:44:42.619Z,21.82
2023-02-01T00:47:16.353Z,23.98
2023-02-01T00:49:49.336Z,21.07
2023-02-01T00:52:22.378Z,22.45
2023-02-01T00:54:55.647Z,22.67
2023-02-01T00:57:28.701Z,19.48
2023-02-01T01:00:01.638Z,22.10
2023-02-01T01:02:35.150Z,19.85
2023-02-01T01:05:09.513Z,19.32
2023-02-01T01:07:44.245Z,19.80
2023-02-01T01:10:18.114Z,18.90
2023-02-01T01:12:52.133Z,18.10
2023-02-01T01:15:25.095Z,18.27
2023-02-01T01:17:58.286Z,17.30
2023-02-01T01:20:32.296Z,16.80
2023-02-01T01:23:05.476Z,16.95
2023-02-01T01:25:44.141Z,16.65
2023-02-01T01:28:17.078Z,16.87
2023-02-01T01:30:50.198Z,15.93
2023-02-01T01:33:23.313Z,17.10
2023-02-01T01:35:56.284Z,18.62
2023-02-01T01:38:29.366Z,17.35
2023-02-01T01:41:02.872Z,18.40
2023-02-01T01:44:02.241Z,17.55
2023-02-01T01:46:39.005Z,17.65
2023-02-01T01:49:24.381Z,17.37
2023-02-01T01:52:02.910Z,17.30
2023-02-01T01:54:47.476Z,18.92
2023-02-01T01:57:29.733Z,18.98
2023-02-01T02:00:08.460Z,19.32
2023-02-01T02:02:50.083Z,22.58
2023-02-01T02:05:23.681Z,20.70
2023-02-01T02:10:31.367Z,22.60
2023-02-01T02:13:04.358Z,21.15
2023-02-01T02:15:38.985Z,21.23
2023-02-01T02:18:22.857Z,20.43
2023-02-01T02:21:09.919Z,20.32
2023-02-01T02:24:07.713Z,20.75
2023-02-01T02:27:06.786Z,21.48
2023-02-01T02:30:11.840Z,21.73
2023-02-01T02:35:57.918Z,21.97
2023-02-01T02:38:42.261Z,24.02
2023-02-01T02:41:49.316Z,23.30
2023-02-01T02:44:50.683Z,24.85
2023-02-01T02:47:31.194Z,22.85
2023-02-01T02:50:44.747Z,22.82
2023-02-01T02:53:48.622Z,24.47
2023-02-01T02:56:41.521Z,24.15
2023-02-01T02:59:35.196Z,24.98
2023-02-01T03:02:27.508Z,24.80
2023-02-01T03:05:00.716Z,23.20
2023-02-01T03:07:57.059Z,23.10
2023-02-01T03:11:01.876Z,24.07
2023-02-01T03:13:58.705Z,24.18
2023-02-01T03:16:53.051Z,23.95
2023-02-01T03:22:13.858Z,26.75
2023-02-01T03:24:59.001Z,30.37
2023-02-01T03:27:44.730Z,28.27
2023-02-01T03:30:28.316Z,27.22
2023-02-01T03:33:05.280Z,31.85
2023-02-01T03:36:15.488Z,32.38
2023-02-01T03:38:59.565Z,33.38
2023-02-01T03:41:46.142Z,38.17
2023-02-01T03:44:34.896Z,32.30
2023-02-01T03:47:17.892Z,31.60
2023-02-01T03:50:03.752Z,31.15
2023-02-01T03:52:55.731Z,30.27
2023-02-01T03:55:30.597Z,28.73
2023-02-01T03:58:19.043Z,26.73
2023-02-01T04:01:01.567Z,27.20
2023-02-01T04:06:08.900Z,23.42
2023-02-01T04:08:42.154Z,21.42
2023-02-01T04:11:15.129Z,19.17
2023-02-01T04:13:49.144Z,21.20
2023-02-01T04:16:22.051Z,23.12
2023-02-01T04:18:55.011Z,20.95
2023-02-01T04:21:29.177Z,19.23
2023-02-01T04:26:34.854Z,18.48
2023-02-01T04:29:10.259Z,19.50
2023-02-01T04:31:43.814Z,17.52
2023-02-01T04:34:17.017Z,18.67
2023-02-01T04:39:22.846Z,18.95
2023-02-01T04:41:56.222Z,16.55
2023-02-01T04:44:29.724Z,16.07
2023-02-01T04:47:02.689Z,17.40
2023-02-01T04:52:08.676Z,15.72
2023-02-01T04:54:41.704Z,16.02
2023-02-01T04:57:16.146Z,14.75
2023-02-01T04:59:49.092Z,12.75
2023-02-01T05:02:22.069Z,13.70
2023-02-01T05:04:57.001Z,11.53
2023-02-01T05:07:30.181Z,11.12
2023-02-01T05:10:03.594Z,12.33
2023-02-01T05:12:54.799Z,10.93
2023-02-01T05:15:28.186Z,11.38
2023-02-01T05:18:01.767Z,11.28
2023-02-01T05:20:35.177Z,11.53
2023-02-01T05:23:08.610Z,12.53
2023-02-01T05:25:41.767Z,11.78
2023-02-01T05:28:14.789Z,11.73
2023-02-01T05:30:48.022Z,11.50
2023-02-01T05:33:21.103Z,11.00
2023-02-01T05:35:54.146Z,10.70
2023-02-01T05:38:27.226Z,9.85
2023-02-01T05:41:00.530Z,10.25
2023-02-01T05:43:33.674Z,10.75
2023-02-01T05:46:07.573Z,10.53
2023-02-01T05:51:15.192Z,10.58
2023-02-01T05:53:48.573Z,11.20
2023-02-01T05:56:21.618Z,11.57
2023-02-01T05:58:54.748Z,10.47
2023-02-01T06:01:27.727Z,12.98
2023-02-01T06:04:00.772Z,11.97
2023-02-01T06:06:34.250Z,12.63
2023-02-01T06:09:07.556Z,11.88
2023-02-01T06:11:42.473Z,11.73
2023-02-01T06:14:15.559Z,16.20
2023-02-01T06:16:48.486Z,12.78
2023-02-01T06:19:21.883Z,13.10
2023-02-01T06:21:55.241Z,12.85
2023-02-01T06:24:28.223Z,14.90
2023-02-01T06:27:01.061Z,15.30
2023-02-01T06:29:34.385Z,14.17
2023-02-01T06:32:08.169Z,14.80
2023-02-01T06:34:42.134Z,14.53
2023-02-01T06:37:15.253Z,14.33
2023-02-01T06:39:48.212Z,14.00
2023-02-01T06:42:21.170Z,15.18
2023-02-01T06:44:54.869Z,13.22
2023-02-01T06:47:29.150Z,12.90
2023-02-01T06:50:02.677Z,12.75
2023-02-01T06:52:37.597Z,12.33
2023-02-01T06:55:10.938Z,12.95
2023-02-01T06:57:43.833Z,13.37
2023-02-01T07:00:18.507Z,12.80
2023-02-01T07:05:24.235Z,13.25
2023-02-01T07:07:56.992Z,14.33
2023-02-01T07:10:30.028Z,13.13
2023-02-01T07:13:03.103Z,12.43
2023-02-01T07:15:36.120Z,11.48
2023-02-01T07:18:09.134Z,14.25
2023-02-01T07:20:43.897Z,15.70
2023-02-01T07:23:17.306Z,11.30
2023-02-01T07:25:51.192Z,12.60
2023-02-01T07:28:24.548Z,10.33
2023-02-01T07:31:07.781Z,10.40
2023-02-01T07:33:41.292Z,10.08
2023-02-01T07:36:19.550Z,10.60
2023-02-01T07:38:56.382Z,17.60
2023-02-01T07:41:28.010Z,18.05
2023-02-01T07:44:01.200Z,19.30
2023-02-01T07:46:34.356Z,14.13
2023-02-01T07:49:07.791Z,12.58
2023-02-01T07:51:40.749Z,11.75
2023-02-01T07:54:14.013Z,11.90
2023-02-01T07:56:47.082Z,10.82
2023-02-01T07:59:20.308Z,10.57
2023-02-01T08:01:53.164Z,9.65
2023-02-01T08:04:26.596Z,9.67
2023-02-01T08:06:59.526Z,8.97
2023-02-01T08:09:32.645Z,10.30
2023-02-01T08:12:05.715Z,10.00
2023-02-01T08:14:41.593Z,11.25
2023-02-01T08:17:14.644Z,10.05
2023-02-01T08:19:48.990Z,9.50
2023-02-01T08:24:57.186Z,10.45
2023-02-01T08:27:30.257Z,10.58
2023-02-01T08:30:03.148Z,9.25
2023-02-01T08:32:37.111Z,9.53
2023-02-01T08:35:10.582Z,8.98
2023-02-01T08:40:16.214Z,8.80
2023-02-01T08:42:55.222Z,10.45
2023-02-01T08:45:31.077Z,12.25
2023-02-01T08:48:04.556Z,10.40
2023-02-01T08:50:38.299Z,9.55
2023-02-01T08:53:11.115Z,8.95
2023-02-01T08:55:44.736Z,9.40
2023-02-01T08:58:18.356Z,10.55
2023-02-01T09:00:52.412Z,10.50
2023-02-01T09:03:25.567Z,10.03
2023-02-01T09:06:11.339Z,11.28
2023-02-01T09:08:45.738Z,10.90
2023-02-01T09:13:55.336Z,10.25
2023-02-01T09:16:28.110Z,11.55
2023-02-01T09:19:24.555Z,11.25
2023-02-01T09:21:35.668Z,11.12
2023-02-01T09:24:08.916Z,10.25
2023-02-01T09:26:42.381Z,10.53
2023-02-01T09:29:15.556Z,11.20
2023-02-01T09:31:57.813Z,11.18
2023-02-01T09:34:23.136Z,10.90
2023-02-01T09:36:56.188Z,9.85
2023-02-01T09:39:30.738Z,12.88
2023-02-01T09:42:33.490Z,11.48
2023-02-01T09:45:38.304Z,12.37
2023-02-01T09:48:21.700Z,12.53
2023-02-01T09:50:58.237Z,11.28
2023-02-01T09:53:41.013Z,12.00
2023-02-01T09:56:18.533Z,12.05
2023-02-01T09:59:08.097Z,13.00
2023-02-01T10:01:41.515Z,13.60
2023-02-01T10:04:17.867Z,14.47
2023-02-01T10:07:24.400Z,14.40
2023-02-01T10:10:17.311Z,14.28
2023-02-01T10:13:26.299Z,15.10
2023-02-01T10:16:20.245Z,16.17
2023-02-01T10:19:21.397Z,19.03
2023-02-01T10:22:15.604Z,18.32
2023-02-01T10:25:17.073Z,16.77
2023-02-01T10:27:50.196Z,13.10
2023-02-01T10:30:27.904Z,10.40
2023-02-01T10:33:28.947Z,10.28
2023-02-01T10:36:15.152Z,9.28
2023-02-01T10:38:48.822Z,10.05
2023-02-01T10:41:24.465Z,8.95
2023-02-01T10:43:59.957Z,10.85
2023-02-01T10:46:35.075Z,12.65
2023-02-01T10:49:12.322Z,12.13
2023-02-01T10:51:58.907Z,12.43
2023-02-01T10:54:41.954Z,11.45
2023-02-01T10:57:26.968Z,11.10
2023-02-01T11:00:00.547Z,10.48
2023-02-01T11:02:37.979Z,9.53
2023-02-01T11:05:15.385Z,9.30
2023-02-01T11:07:52.468Z,9.43
2023-02-01T11:10:41.862Z,10.32
2023-02-01T11:13:20.689Z,9.58
2023-02-01T11:15:57.475Z,10.78
2023-02-01T11:18:37.833Z,12.47
2023-02-01T11:21:12.405Z,13.35
2023-02-01T11:26:28.227Z,10.85
2023-02-01T11:29:05.217Z,8.90
2023-02-01T11:31:38.683Z,9.53
2023-02-01T11:34:19.634Z,9.07
2023-02-01T11:36:54.474Z,9.85
2023-02-01T11:42:17.342Z,10.35
2023-02-01T11:44:50.931Z,10.72
2023-02-01T11:47:42.366Z,10.45
2023-02-01T11:50:23.856Z,10.43
2023-02-01T11:53:07.451Z,13.45
2023-02-01T11:55:50.931Z,13.78
2023-02-01T11:59:01.257Z,13.85
2023-02-01T12:02:06.096Z,13.20
2023-02-01T12:05:04.052Z,11.00
2023-02-01T12:08:13.720Z,11.93
2023-02-01T12:11:16.648Z,12.80
2023-02-01T12:14:02.445Z,10.53
2023-02-01T12:16:52.665Z,9.28
2023-02-01T12:19:38.929Z,10.00
2023-02-01T12:22:43.623Z,9.05
2023-02-01T12:25:21.007Z,8.00
2023-02-01T12:28:10.272Z,8.63
2023-02-01T12:30:50.488Z,8.85
2023-02-01T12:33:39.425Z,9.63
2023-02-01T12:36:44.091Z,8.95
2023-02-01T12:39:47.350Z,8.75
2023-02-01T12:42:27.884Z,9.75
2023-02-01T12:45:33.728Z,10.55
2023-02-01T12:48:20.259Z,11.78
2023-02-01T12:51:08.224Z,30.05
2023-02-01T12:53:54.358Z,8.98
2023-02-01T12:56:46.782Z,9.48
2023-02-01T12:59:39.387Z,8.60
2023-02-01T13:02:39.100Z,8.98
2023-02-01T13:05:25.503Z,9.08
2023-02-01T13:08:09.348Z,16.32
2023-02-01T13:10:47.137Z,11.45
2023-02-01T13:13:41.910Z,10.85
2023-02-01T13:16:31.410Z,9.65
2023-02-01T13:19:17.458Z,11.43
2023-02-01T13:21:58.365Z,10.75
2023-02-01T13:24:43.602Z,11.93
2023-02-01T13:27:18.188Z,11.68
2023-02-01T13:30:01.293Z,12.03
2023-02-01T13:33:54.497Z,14.18
2023-02-01T13:35:55.406Z,12.37
2023-02-01T13:38:56.639Z,11.88
2023-02-01T13:41:44.937Z,11.83
2023-02-01T13:44:22.733Z,12.85
2023-02-01T13:46:59.715Z,18.23
2023-02-01T13:49:37.176Z,20.08
2023-02-01T13:52:29.921Z,17.42
2023-02-01T13:55:26.426Z,13.62
2023-02-01T13:58:38.011Z,13.95
2023-02-01T14:01:30.819Z,27.75
2023-02-01T14:04:07.885Z,38.88
2023-02-01T14:06:47.966Z,30.90
2023-02-01T14:09:25.416Z,20.82
2023-02-01T14:11:59.015Z,15.08
2023-02-01T14:17:21.209Z,14.98
2023-02-01T14:19:57.181Z,15.53
2023-02-01T14:22:37.348Z,14.53
2023-02-01T14:25:15.022Z,15.13
2023-02-01T14:27:48.542Z,15.68
2023-02-01T14:30:23.027Z,18.02
2023-02-01T14:32:56.960Z,20.37
2023-02-01T14:35:31.344Z,15.50
2023-02-01T14:38:05.512Z,16.13
2023-02-01T14:43:32.208Z,13.35
2023-02-01T14:45:52.027Z,12.65
2023-02-01T14:48:33.551Z,12.07
2023-02-01T14:51:08.021Z,12.93
2023-02-01T14:53:42.629Z,10.93
2023-02-01T14:56:21.236Z,11.73
2023-02-01T14:59:05.467Z,11.30
2023-02-01T15:01:40.786Z,14.75
2023-02-01T15:04:18.803Z,15.48
2023-02-01T15:07:03.120Z,13.65
2023-02-01T15:09:43.379Z,13.48
2023-02-01T15:12:21.771Z,11.35
2023-02-01T15:15:17.749Z,11.03
2023-02-01T15:17:59.909Z,12.55
2023-02-01T15:20:35.075Z,11.22
2023-02-01T15:23:13.002Z,9.75
2023-02-01T15:25:48.833Z,14.25
2023-02-01T15:28:21.938Z,13.72
2023-02-01T15:31:04.261Z,13.08
2023-02-01T15:33:38.145Z,12.30
2023-02-01T15:36:15.317Z,11.88
2023-02-01T15:38:48.534Z,11.15
2023-02-01T15:41:24.234Z,10.55
2023-02-01T15:44:02.827Z,9.23
2023-02-01T15:46:43.668Z,9.58
2023-02-01T15:49:35.265Z,9.50
2023-02-01T15:52:12.904Z,9.90
2023-02-01T15:54:50.232Z,8.73
2023-02-01T15:57:33.747Z,8.65
2023-02-01T16:00:28.973Z,9.47
2023-02-01T16:03:10.329Z,9.50
2023-02-01T16:05:45.986Z,9.28
2023-02-01T16:08:25.447Z,11.53
2023-02-01T16:11:17.807Z,10.90
2023-02-01T16:13:51.447Z,9.70
2023-02-01T16:16:25.042Z,12.57
2023-02-01T16:18:57.705Z,25.88
2023-02-01T16:21:30.793Z,41.45
2023-02-01T16:24:06.917Z,28.55
2023-02-01T16:26:41.744Z,17.77
2023-02-01T16:29:16.169Z,13.78
2023-02-01T16:31:49.043Z,8.78
2023-02-01T16:34:22.572Z,8.88
2023-02-01T16:36:57.051Z,6.80
2023-02-01T16:39:31.145Z,6.15
2023-02-01T16:42:09.325Z,5.87
2023-02-01T16:44:42.686Z,6.20
2023-02-01T16:47:23.609Z,5.75
2023-02-01T16:49:57.104Z,5.83
2023-02-01T16:52:30.512Z,5.85
2023-02-01T16:55:03.795Z,5.92
2023-02-01T16:57:37.124Z,6.65
2023-02-01T17:00:23.886Z,6.70
2023-02-01T17:02:49.744Z,6.95
2023-02-01T17:05:23.464Z,7.42
2023-02-01T17:07:57.618Z,7.33
2023-02-01T17:10:33.814Z,6.78
2023-02-01T17:13:06.029Z,6.62
2023-02-01T17:15:39.065Z,6.80
2023-02-01T17:18:16.269Z,7.00
2023-02-01T17:20:49.036Z,7.83
2023-02-01T17:23:22.852Z,8.25
2023-02-01T17:25:55.729Z,12.23
2023-02-01T17:28:29.534Z,8.48
2023-02-01T17:31:02.758Z,9.13
2023-02-01T17:33:38.335Z,11.00
2023-02-01T17:36:15.789Z,10.78
2023-02-01T17:39:03.701Z,13.13
2023-02-01T17:41:23.358Z,10.65
2023-02-01T17:43:56.504Z,10.98
2023-02-01T17:46:29.395Z,11.30
2023-02-01T17:49:03.967Z,9.48
2023-02-01T17:51:37.379Z,10.60
2023-02-01T17:54:17.296Z,9.93
2023-02-01T17:56:50.050Z,10.10
2023-02-01T17:59:23.274Z,12.30
2023-02-01T18:01:57.730Z,14.53
2023-02-01T18:04:30.625Z,15.58
2023-02-01T18:07:03.920Z,14.98
2023-02-01T18:09:37.318Z,15.40
2023-02-01T18:12:23.712Z,15.73
2023-02-01T18:14:57.614Z,15.10
2023-02-01T18:17:30.689Z,14.90
2023-02-01T18:20:03.591Z,15.48
2023-02-01T18:22:36.483Z,14.68
2023-02-01T18:25:17.420Z,15.68
2023-02-01T18:27:55.289Z,13.68
2023-02-01T18:30:31.900Z,13.15
2023-02-01T18:33:05.687Z,13.90
2023-02-01T18:35:38.752Z,13.05
2023-02-01T18:38:12.827Z,12.73
2023-02-01T18:40:55.083Z,13.13
2023-02-01T18:43:28.125Z,12.05
2023-02-01T18:46:01.103Z,12.33
2023-02-01T18:48:34.705Z,11.40
2023-02-01T18:51:08.078Z,11.03
2023-02-01T18:53:41.281Z,10.88
2023-02-01T18:56:15.656Z,13.22
2023-02-01T18:58:48.559Z,12.93
2023-02-01T19:01:23.270Z,12.98
2023-02-01T19:03:59.178Z,13.40
2023-02-01T19:06:30.810Z,12.82
2023-02-01T19:09:03.967Z,11.97
2023-02-01T19:11:37.042Z,11.70
2023-02-01T19:14:10.041Z,12.20
2023-02-01T19:16:43.459Z,11.60
2023-02-01T19:19:16.468Z,10.88
2023-02-01T19:21:51.014Z,10.63
2023-02-01T19:24:25.612Z,11.65
2023-02-01T19:26:58.711Z,11.08
2023-02-01T19:29:32.433Z,12.43
2023-02-01T19:32:06.563Z,12.35
2023-02-01T19:34:40.253Z,13.00
2023-02-01T19:37:13.573Z,11.73
2023-02-01T19:39:46.736Z,10.98
2023-02-01T19:42:19.994Z,12.57
2023-02-01T19:44:53.375Z,12.13
2023-02-01T19:47:27.082Z,12.05
2023-02-01T19:50:00.526Z,11.70
2023-02-01T19:52:34.682Z,11.68
2023-02-01T19:55:09.119Z,12.45
2023-02-01T20:00:17.275Z,13.53
2023-02-01T20:02:50.773Z,12.23
2023-02-01T20:05:24.180Z,11.80
2023-02-01T20:07:57.579Z,11.65
2023-02-01T20:10:30.979Z,11.47
2023-02-01T20:13:03.969Z,11.07
2023-02-01T20:18:10.861Z,10.82
2023-02-01T20:20:44.119Z,10.60
2023-02-01T20:23:18.974Z,11.30
2023-02-01T20:25:52.850Z,10.80
2023-02-01T20:28:26.075Z,11.03
2023-02-01T20:30:59.817Z,12.53
2023-02-01T20:33:34.257Z,12.82
2023-02-01T20:36:07.952Z,12.18
2023-02-01T20:38:41.003Z,13.13
2023-02-01T20:41:14.173Z,13.13
2023-02-01T20:43:47.218Z,12.50
2023-02-01T20:46:20.543Z,14.83
2023-02-01T20:48:53.601Z,14.27
2023-02-01T20:51:26.592Z,13.65
2023-02-01T20:53:59.495Z,15.10
2023-02-01T20:56:32.363Z,14.13
2023-02-01T20:59:06.867Z,13.10
2023-02-01T21:01:41.997Z,14.43
2023-02-01T21:04:16.880Z,14.73
2023-02-01T21:06:50.494Z,14.83
2023-02-01T21:09:25.020Z,15.70
2023-02-01T21:11:57.766Z,15.00
2023-02-01T21:14:31.163Z,14.67
2023-02-01T21:17:04.581Z,14.73
2023-02-01T21:19:44.250Z,13.13
2023-02-01T21:22:18.010Z,13.40
2023-02-01T21:24:50.657Z,12.80
2023-02-01T21:27:23.680Z,13.22
2023-02-01T21:29:56.698Z,14.47
2023-02-01T21:32:30.292Z,13.38
2023-02-01T21:35:04.173Z,14.35
2023-02-01T21:37:38.682Z,14.38
2023-02-01T21:40:13.239Z,12.93
2023-02-01T21:42:46.461Z,14.38
2023-02-01T21:45:19.807Z,12.63
2023-02-01T21:47:52.994Z,13.13
2023-02-01T21:50:25.895Z,13.45
2023-02-01T21:52:59.514Z,12.57
2023-02-01T21:55:32.465Z,12.10
2023-02-01T21:58:06.937Z,14.55
2023-02-01T22:00:40.265Z,14.03
2023-02-01T22:03:14.067Z,13.03
2023-02-01T22:05:51.199Z,12.80
2023-02-01T22:08:24.072Z,12.90
2023-02-01T22:10:59.455Z,12.60
2023-02-01T22:13:33.649Z,13.58
2023-02-01T22:16:07.011Z,15.20
2023-02-01T22:18:40.317Z,16.32
2023-02-01T22:21:13.365Z,14.43
2023-02-01T22:23:46.639Z,16.90
2023-02-01T22:26:19.603Z,17.60
2023-02-01T22:28:52.697Z,18.23
2023-02-01T22:31:25.855Z,16.77
2023-02-01T22:33:58.874Z,17.85
2023-02-01T22:36:33.328Z,17.02
2023-02-01T22:39:06.568Z,15.88
2023-02-01T22:41:39.827Z,15.95
2023-02-01T22:44:13.095Z,15.60
2023-02-01T22:46:45.993Z,14.40
2023-02-01T22:49:19.087Z,15.20
2023-02-01T22:51:52.664Z,15.37
2023-02-01T22:54:25.383Z,14.30
2023-02-01T22:57:00.338Z,14.10
2023-02-01T22:59:34.180Z,13.50
2023-02-01T23:02:07.518Z,10.97
2023-02-01T23:04:40.963Z,12.33
2023-02-01T23:07:15.176Z,11.60
2023-02-01T23:09:48.205Z,11.33
2023-02-01T23:12:21.204Z,11.93
2023-02-01T23:15:06.702Z,11.93
2023-02-01T23:17:40.201Z,13.22
2023-02-01T23:20:17.768Z,10.68
2023-02-01T23:22:51.691Z,12.82
2023-02-01T23:25:24.830Z,13.05
2023-02-01T23:27:58.348Z,14.47
2023-02-01T23:30:31.666Z,12.97
2023-02-01T23:33:04.680Z,14.95
2023-02-01T23:38:10.539Z,12.85
2023-02-01T23:40:43.337Z,13.10
2023-02-01T23:43:35.141Z,11.83
2023-02-01T23:46:08.254Z,12.43
2023-02-01T23:48:41.442Z,10.93
2023-02-01T23:51:14.964Z,11.83
2023-02-01T23:53:48.170Z,10.10
2023-02-01T23:56:32.387Z,10.53
